sensor_id;sensor_type;location;lat;lon;timestamp;P1;durP1;ratioP1;P2;durP2;ratioP2
22260;SDS011;11299;43.202;27.920;2022-09-01T00:02:23;10.32;;;7.72;;
22260;SDS011;11299;43.202;27.920;2022-09-01T00:04:51;12.02;;;8.10;;
22260;SDS011;11299;43.202;27.920;2022-09-01T00:07:23;13.57;;;7.53;;
22260;SDS011;11299;43.202;27.920;2022-09-01T00:09:50;14.80;;;7.80;;
22260;SDS011;11299;43.202;27.920;2022-09-01T00:12:16;13.25;;;8.05;;
22260;SDS011;11299;43.202;27.920;2022-09-01T00:14:42;16.45;;;8.25;;
22260;SDS011;11299;43.202;27.920;2022-09-01T00:17:08;16.10;;;7.95;;
22260;SDS011;11299;43.202;27.920;2022-09-01T00:19:35;12.43;;;7.85;;
22260;SDS011;11299;43.202;27.920;2022-09-01T00:22:01;11.68;;;9.45;;
22260;SDS011;11299;43.202;27.920;2022-09-01T00:24:28;12.38;;;7.90;;
22260;SDS011;11299;43.202;27.920;2022-09-01T00:26:54;10.85;;;7.93;;
22260;SDS011;11299;43.202;27.920;2022-09-01T00:29:20;14.52;;;8.13;;
22260;SDS011;11299;43.202;27.920;2022-09-01T00:31:47;12.38;;;8.07;;
22260;SDS011;11299;43.202;27.920;2022-09-01T00:34:14;15.23;;;8.70;;
22260;SDS011;11299;43.202;27.920;2022-09-01T00:36:41;13.35;;;8.25;;
22260;SDS011;11299;43.202;27.920;2022-09-01T00:39:07;16.20;;;7.47;;
22260;SDS011;11299;43.202;27.920;2022-09-01T00:41:34;9.95;;;8.30;;
22260;SDS011;11299;43.202;27.920;2022-09-01T00:44:07;16.30;;;8.43;;
22260;SDS011;11299;43.202;27.920;2022-09-01T00:46:40;11.38;;;8.35;;
22260;SDS011;11299;43.202;27.920;2022-09-01T00:49:10;16.17;;;8.80;;
22260;SDS011;11299;43.202;27.920;2022-09-01T00:51:42;17.33;;;8.55;;
22260;SDS011;11299;43.202;27.920;2022-09-01T00:54:12;15.93;;;8.57;;
22260;SDS011;11299;43.202;27.920;2022-09-01T00:56:42;12.45;;;9.00;;
22260;SDS011;11299;43.202;27.920;2022-09-01T00:59:09;12.73;;;8.85;;
22260;SDS011;11299;43.202;27.920;2022-09-01T01:01:37;15.02;;;8.45;;
22260;SDS011;11299;43.202;27.920;2022-09-01T01:04:04;10.88;;;8.18;;
22260;SDS011;11299;43.202;27.920;2022-09-01T01:06:31;13.35;;;8.20;;
22260;SDS011;11299;43.202;27.920;2022-09-01T01:08:57;12.38;;;8.32;;
22260;SDS011;11299;43.202;27.920;2022-09-01T01:11:26;14.00;;;8.40;;
22260;SDS011;11299;43.202;27.920;2022-09-01T01:16:24;10.23;;;7.97;;
22260;SDS011;11299;43.202;27.920;2022-09-01T01:18:52;11.45;;;7.68;;
22260;SDS011;11299;43.202;27.920;2022-09-01T01:21:19;13.07;;;8.23;;
22260;SDS011;11299;43.202;27.920;2022-09-01T01:24:32;9.55;;;7.82;;
22260;SDS011;11299;43.202;27.920;2022-09-01T01:26:58;12.73;;;8.25;;
22260;SDS011;11299;43.202;27.920;2022-09-01T01:29:25;12.05;;;8.15;;
22260;SDS011;11299;43.202;27.920;2022-09-01T01:31:53;12.88;;;7.75;;
22260;SDS011;11299;43.202;27.920;2022-09-01T01:34:19;10.38;;;7.60;;
22260;SDS011;11299;43.202;27.920;2022-09-01T01:36:46;11.52;;;7.70;;
22260;SDS011;11299;43.202;27.920;2022-09-01T01:39:18;9.75;;;7.45;;
22260;SDS011;11299;43.202;27.920;2022-09-01T01:41:46;10.25;;;7.53;;
22260;SDS011;11299;43.202;27.920;2022-09-01T01:44:14;10.05;;;7.32;;
22260;SDS011;11299;43.202;27.920;2022-09-01T01:46:43;12.15;;;8.25;;
22260;SDS011;11299;43.202;27.920;2022-09-01T01:49:14;10.73;;;7.93;;
22260;SDS011;11299;43.202;27.920;2022-09-01T01:51:45;10.50;;;7.70;;
22260;SDS011;11299;43.202;27.920;2022-09-01T01:54:12;12.07;;;8.02;;
22260;SDS011;11299;43.202;27.920;2022-09-01T01:56:38;10.10;;;7.32;;
22260;SDS011;11299;43.202;27.920;2022-09-01T01:59:06;9.93;;;7.60;;
22260;SDS011;11299;43.202;27.920;2022-09-01T02:04:03;10.52;;;7.38;;
22260;SDS011;11299;43.202;27.920;2022-09-01T02:06:31;11.50;;;7.75;;
22260;SDS011;11299;43.202;27.920;2022-09-01T02:08:59;11.07;;;7.82;;
22260;SDS011;11299;43.202;27.920;2022-09-01T02:11:28;12.50;;;7.80;;
22260;SDS011;11299;43.202;27.920;2022-09-01T02:13:57;10.43;;;7.53;;
22260;SDS011;11299;43.202;27.920;2022-09-01T02:16:24;11.95;;;7.28;;
22260;SDS011;11299;43.202;27.920;2022-09-01T02:18:51;11.43;;;7.00;;
22260;SDS011;11299;43.202;27.920;2022-09-01T02:21:19;13.73;;;7.78;;
22260;SDS011;11299;43.202;27.920;2022-09-01T02:23:48;12.65;;;8.02;;
22260;SDS011;11299;43.202;27.920;2022-09-01T02:26:21;11.40;;;7.65;;
22260;SDS011;11299;43.202;27.920;2022-09-01T02:28:47;8.45;;;7.22;;
22260;SDS011;11299;43.202;27.920;2022-09-01T02:31:13;9.63;;;7.53;;
22260;SDS011;11299;43.202;27.920;2022-09-01T02:33:39;11.75;;;7.80;;
22260;SDS011;11299;43.202;27.920;2022-09-01T02:36:11;12.82;;;7.38;;
22260;SDS011;11299;43.202;27.920;2022-09-01T02:38:39;12.85;;;7.75;;
22260;SDS011;11299;43.202;27.920;2022-09-01T02:41:09;9.02;;;6.82;;
22260;SDS011;11299;43.202;27.920;2022-09-01T02:43:37;11.27;;;7.97;;
22260;SDS011;11299;43.202;27.920;2022-09-01T02:46:04;8.45;;;7.35;;
22260;SDS011;11299;43.202;27.920;2022-09-01T02:48:35;11.98;;;7.57;;
22260;SDS011;11299;43.202;27.920;2022-09-01T02:51:05;11.45;;;7.72;;
22260;SDS011;11299;43.202;27.920;2022-09-01T02:53:33;16.92;;;7.60;;
22260;SDS011;11299;43.202;27.920;2022-09-01T02:56:01;14.43;;;7.47;;
22260;SDS011;11299;43.202;27.920;2022-09-01T02:58:28;14.85;;;7.78;;
22260;SDS011;11299;43.202;27.920;2022-09-01T03:01:09;10.57;;;7.82;;
22260;SDS011;11299;43.202;27.920;2022-09-01T03:03:46;13.13;;;7.43;;
22260;SDS011;11299;43.202;27.920;2022-09-01T03:06:13;9.50;;;6.95;;
22260;SDS011;11299;43.202;27.920;2022-09-01T03:08:39;9.75;;;6.82;;
22260;SDS011;11299;43.202;27.920;2022-09-01T03:11:08;12.00;;;6.93;;
22260;SDS011;11299;43.202;27.920;2022-09-01T03:13:35;10.20;;;7.20;;
22260;SDS011;11299;43.202;27.920;2022-09-01T03:16:03;10.25;;;7.00;;
22260;SDS011;11299;43.202;27.920;2022-09-01T03:18:29;10.00;;;7.22;;
22260;SDS011;11299;43.202;27.920;2022-09-01T03:20:55;10.98;;;7.20;;
22260;SDS011;11299;43.202;27.920;2022-09-01T03:23:21;11.93;;;8.35;;
22260;SDS011;11299;43.202;27.920;2022-09-01T03:25:49;11.95;;;7.18;;
22260;SDS011;11299;43.202;27.920;2022-09-01T03:28:16;8.45;;;7.03;;
22260;SDS011;11299;43.202;27.920;2022-09-01T03:30:46;11.02;;;7.40;;
22260;SDS011;11299;43.202;27.920;2022-09-01T03:35:41;10.57;;;7.07;;
22260;SDS011;11299;43.202;27.920;2022-09-01T03:38:07;14.05;;;7.05;;
22260;SDS011;11299;43.202;27.920;2022-09-01T03:40:34;9.02;;;7.35;;
22260;SDS011;11299;43.202;27.920;2022-09-01T03:43:02;9.25;;;7.25;;
22260;SDS011;11299;43.202;27.920;2022-09-01T03:45:29;8.77;;;7.07;;
22260;SDS011;11299;43.202;27.920;2022-09-01T03:48:00;10.50;;;6.63;;
22260;SDS011;11299;43.202;27.920;2022-09-01T03:50:33;13.35;;;7.22;;
22260;SDS011;11299;43.202;27.920;2022-09-01T03:53:09;12.32;;;7.47;;
22260;SDS011;11299;43.202;27.920;2022-09-01T03:55:36;9.90;;;6.95;;
22260;SDS011;11299;43.202;27.920;2022-09-01T03:58:06;9.30;;;7.13;;
22260;SDS011;11299;43.202;27.920;2022-09-01T04:00:38;9.93;;;7.05;;
22260;SDS011;11299;43.202;27.920;2022-09-01T04:03:08;12.90;;;6.95;;
22260;SDS011;11299;43.202;27.920;2022-09-01T04:05:36;10.82;;;7.13;;
22260;SDS011;11299;43.202;27.920;2022-09-01T04:08:05;10.48;;;6.50;;
22260;SDS011;11299;43.202;27.920;2022-09-01T04:10:35;9.95;;;7.18;;
22260;SDS011;11299;43.202;27.920;2022-09-01T04:13:06;10.73;;;6.85;;
22260;SDS011;11299;43.202;27.920;2022-09-01T04:15:35;9.55;;;7.32;;
22260;SDS011;11299;43.202;27.920;2022-09-01T04:18:02;9.32;;;6.88;;
22260;SDS011;11299;43.202;27.920;2022-09-01T04:20:38;10.05;;;7.05;;
22260;SDS011;11299;43.202;27.920;2022-09-01T04:23:18;10.63;;;7.05;;
22260;SDS011;11299;43.202;27.920;2022-09-01T04:25:59;10.52;;;6.78;;
22260;SDS011;11299;43.202;27.920;2022-09-01T04:28:33;12.88;;;7.00;;
22260;SDS011;11299;43.202;27.920;2022-09-01T04:31:02;11.63;;;7.75;;
22260;SDS011;11299;43.202;27.920;2022-09-01T04:33:30;10.55;;;6.55;;
22260;SDS011;11299;43.202;27.920;2022-09-01T04:36:25;12.77;;;7.82;;
22260;SDS011;11299;43.202;27.920;2022-09-01T04:38:56;14.20;;;7.60;;
22260;SDS011;11299;43.202;27.920;2022-09-01T04:41:27;12.80;;;7.10;;
22260;SDS011;11299;43.202;27.920;2022-09-01T04:43:56;12.68;;;6.68;;
22260;SDS011;11299;43.202;27.920;2022-09-01T04:46:24;12.95;;;7.38;;
22260;SDS011;11299;43.202;27.920;2022-09-01T04:48:52;13.00;;;6.93;;
22260;SDS011;11299;43.202;27.920;2022-09-01T04:51:19;9.52;;;6.90;;
22260;SDS011;11299;43.202;27.920;2022-09-01T04:53:46;9.75;;;6.75;;
22260;SDS011;11299;43.202;27.920;2022-09-01T04:56:16;9.25;;;6.72;;
22260;SDS011;11299;43.202;27.920;2022-09-01T04:58:45;12.57;;;7.30;;
22260;SDS011;11299;43.202;27.920;2022-09-01T05:01:15;8.23;;;6.63;;
22260;SDS011;11299;43.202;27.920;2022-09-01T05:03:43;11.25;;;6.82;;
22260;SDS011;11299;43.202;27.920;2022-09-01T05:06:17;9.90;;;7.40;;
22260;SDS011;11299;43.202;27.920;2022-09-01T05:08:44;9.85;;;6.90;;
22260;SDS011;11299;43.202;27.920;2022-09-01T05:11:10;12.15;;;6.60;;
22260;SDS011;11299;43.202;27.920;2022-09-01T05:13:41;11.23;;;6.47;;
22260;SDS011;11299;43.202;27.920;2022-09-01T05:16:09;19.48;;;7.00;;
22260;SDS011;11299;43.202;27.920;2022-09-01T05:18:40;16.83;;;6.80;;
22260;SDS011;11299;43.202;27.920;2022-09-01T05:21:11;8.82;;;6.32;;
22260;SDS011;11299;43.202;27.920;2022-09-01T05:23:40;9.57;;;6.47;;
22260;SDS011;11299;43.202;27.920;2022-09-01T05:26:14;14.38;;;6.72;;
22260;SDS011;11299;43.202;27.920;2022-09-01T05:28:43;8.05;;;6.30;;
22260;SDS011;11299;43.202;27.920;2022-09-01T05:31:09;11.70;;;6.55;;
22260;SDS011;11299;43.202;27.920;2022-09-01T05:33:35;9.02;;;6.47;;
22260;SDS011;11299;43.202;27.920;2022-09-01T05:36:01;11.50;;;6.18;;
22260;SDS011;11299;43.202;27.920;2022-09-01T05:38:34;9.77;;;6.38;;
22260;SDS011;11299;43.202;27.920;2022-09-01T05:41:01;10.38;;;6.18;;
22260;SDS011;11299;43.202;27.920;2022-09-01T05:43:32;12.38;;;7.15;;
22260;SDS011;11299;43.202;27.920;2022-09-01T05:45:59;10.60;;;6.63;;
22260;SDS011;11299;43.202;27.920;2022-09-01T05:48:25;11.40;;;6.70;;
22260;SDS011;11299;43.202;27.920;2022-09-01T05:50:54;11.00;;;6.38;;
22260;SDS011;11299;43.202;27.920;2022-09-01T05:53:24;11.45;;;6.90;;
22260;SDS011;11299;43.202;27.920;2022-09-01T05:55:53;8.48;;;6.70;;
22260;SDS011;11299;43.202;27.920;2022-09-01T05:58:21;10.63;;;6.50;;
22260;SDS011;11299;43.202;27.920;2022-09-01T06:00:51;10.50;;;6.55;;
22260;SDS011;11299;43.202;27.920;2022-09-01T06:03:20;10.68;;;6.47;;
22260;SDS011;11299;43.202;27.920;2022-09-01T06:05:47;10.85;;;6.10;;
22260;SDS011;11299;43.202;27.920;2022-09-01T06:08:17;9.98;;;6.70;;
22260;SDS011;11299;43.202;27.920;2022-09-01T06:10:45;14.52;;;7.43;;
22260;SDS011;11299;43.202;27.920;2022-09-01T06:13:14;12.07;;;6.40;;
22260;SDS011;11299;43.202;27.920;2022-09-01T06:15:41;10.98;;;6.57;;
22260;SDS011;11299;43.202;27.920;2022-09-01T06:18:11;12.35;;;7.18;;
22260;SDS011;11299;43.202;27.920;2022-09-01T06:20:37;12.43;;;6.88;;
22260;SDS011;11299;43.202;27.920;2022-09-01T06:23:08;9.13;;;5.93;;
22260;SDS011;11299;43.202;27.920;2022-09-01T06:25:37;13.93;;;7.22;;
22260;SDS011;11299;43.202;27.920;2022-09-01T06:28:04;15.43;;;6.47;;
22260;SDS011;11299;43.202;27.920;2022-09-01T06:30:30;10.63;;;6.13;;
22260;SDS011;11299;43.202;27.920;2022-09-01T06:32:57;9.55;;;6.18;;
22260;SDS011;11299;43.202;27.920;2022-09-01T06:35:25;11.93;;;6.70;;
22260;SDS011;11299;43.202;27.920;2022-09-01T06:37:53;9.27;;;6.50;;
22260;SDS011;11299;43.202;27.920;2022-09-01T06:40:20;9.35;;;5.97;;
22260;SDS011;11299;43.202;27.920;2022-09-01T06:42:49;11.43;;;6.45;;
22260;SDS011;11299;43.202;27.920;2022-09-01T06:45:17;8.50;;;5.13;;
22260;SDS011;11299;43.202;27.920;2022-09-01T06:47:45;12.57;;;6.43;;
22260;SDS011;11299;43.202;27.920;2022-09-01T06:50:16;10.93;;;5.40;;
22260;SDS011;11299;43.202;27.920;2022-09-01T06:52:45;9.40;;;6.15;;
22260;SDS011;11299;43.202;27.920;2022-09-01T06:55:14;9.48;;;7.15;;
22260;SDS011;11299;43.202;27.920;2022-09-01T06:57:41;12.00;;;6.07;;
22260;SDS011;11299;43.202;27.920;2022-09-01T07:00:13;13.65;;;6.07;;
22260;SDS011;11299;43.202;27.920;2022-09-01T07:02:44;12.88;;;6.13;;
22260;SDS011;11299;43.202;27.920;2022-09-01T07:05:10;9.98;;;5.68;;
22260;SDS011;11299;43.202;27.920;2022-09-01T07:07:36;7.22;;;6.05;;
22260;SDS011;11299;43.202;27.920;2022-09-01T07:10:03;13.07;;;6.63;;
22260;SDS011;11299;43.202;27.920;2022-09-01T07:12:29;8.70;;;6.28;;
22260;SDS011;11299;43.202;27.920;2022-09-01T07:14:56;11.50;;;6.28;;
22260;SDS011;11299;43.202;27.920;2022-09-01T07:17:22;9.48;;;5.78;;
22260;SDS011;11299;43.202;27.920;2022-09-01T07:19:49;7.88;;;6.05;;
22260;SDS011;11299;43.202;27.920;2022-09-01T07:22:15;9.88;;;6.10;;
22260;SDS011;11299;43.202;27.920;2022-09-01T07:24:40;10.95;;;5.97;;
22260;SDS011;11299;43.202;27.920;2022-09-01T07:27:06;14.43;;;5.85;;
22260;SDS011;11299;43.202;27.920;2022-09-01T07:29:33;13.50;;;6.43;;
22260;SDS011;11299;43.202;27.920;2022-09-01T07:31:59;9.52;;;5.47;;
22260;SDS011;11299;43.202;27.920;2022-09-01T07:34:25;10.27;;;6.13;;
22260;SDS011;11299;43.202;27.920;2022-09-01T07:36:52;14.80;;;6.32;;
22260;SDS011;11299;43.202;27.920;2022-09-01T07:39:20;9.52;;;6.00;;
22260;SDS011;11299;43.202;27.920;2022-09-01T07:41:46;10.27;;;5.80;;
22260;SDS011;11299;43.202;27.920;2022-09-01T07:44:12;7.80;;;5.50;;
22260;SDS011;11299;43.202;27.920;2022-09-01T07:46:39;10.10;;;5.72;;
22260;SDS011;11299;43.202;27.920;2022-09-01T07:49:05;8.13;;;5.85;;
22260;SDS011;11299;43.202;27.920;2022-09-01T07:51:31;13.82;;;6.82;;
22260;SDS011;11299;43.202;27.920;2022-09-01T07:53:59;8.40;;;6.13;;
22260;SDS011;11299;43.202;27.920;2022-09-01T07:56:26;8.68;;;6.03;;
22260;SDS011;11299;43.202;27.920;2022-09-01T07:58:54;9.18;;;5.80;;
22260;SDS011;11299;43.202;27.920;2022-09-01T08:01:22;9.13;;;6.05;;
22260;SDS011;11299;43.202;27.920;2022-09-01T08:03:51;10.05;;;5.38;;
22260;SDS011;11299;43.202;27.920;2022-09-01T08:06:19;13.18;;;5.82;;
22260;SDS011;11299;43.202;27.920;2022-09-01T08:08:47;11.85;;;6.40;;
22260;SDS011;11299;43.202;27.920;2022-09-01T08:11:17;7.65;;;5.50;;
22260;SDS011;11299;43.202;27.920;2022-09-01T08:13:45;10.05;;;5.72;;
22260;SDS011;11299;43.202;27.920;2022-09-01T08:16:11;8.75;;;5.72;;
22260;SDS011;11299;43.202;27.920;2022-09-01T08:18:38;7.25;;;5.40;;
22260;SDS011;11299;43.202;27.920;2022-09-01T08:21:05;9.60;;;5.60;;
22260;SDS011;11299;43.202;27.920;2022-09-01T08:23:33;9.93;;;5.68;;
22260;SDS011;11299;43.202;27.920;2022-09-01T08:26:03;10.73;;;5.80;;
22260;SDS011;11299;43.202;27.920;2022-09-01T08:28:33;9.77;;;5.32;;
22260;SDS011;11299;43.202;27.920;2022-09-01T08:30:59;7.93;;;5.53;;
22260;SDS011;11299;43.202;27.920;2022-09-01T08:33:25;5.90;;;5.30;;
22260;SDS011;11299;43.202;27.920;2022-09-01T08:35:51;8.63;;;5.43;;
22260;SDS011;11299;43.202;27.920;2022-09-01T08:38:17;8.68;;;6.13;;
22260;SDS011;11299;43.202;27.920;2022-09-01T08:40:42;7.65;;;5.95;;
22260;SDS011;11299;43.202;27.920;2022-09-01T08:46:32;15.25;;;6.55;;
22260;SDS011;11299;43.202;27.920;2022-09-01T08:49:00;10.80;;;6.22;;
22260;SDS011;11299;43.202;27.920;2022-09-01T08:51:34;6.88;;;5.55;;
22260;SDS011;11299;43.202;27.920;2022-09-01T08:54:07;9.10;;;6.22;;
22260;SDS011;11299;43.202;27.920;2022-09-01T08:56:42;14.55;;;6.72;;
22260;SDS011;11299;43.202;27.920;2022-09-01T08:59:09;10.15;;;6.00;;
22260;SDS011;11299;43.202;27.920;2022-09-01T09:07:01;9.30;;;5.88;;
22260;SDS011;11299;43.202;27.920;2022-09-01T09:09:56;14.18;;;6.13;;
22260;SDS011;11299;43.202;27.920;2022-09-01T09:12:51;11.05;;;5.90;;
22260;SDS011;11299;43.202;27.920;2022-09-01T09:15:42;9.90;;;6.13;;
22260;SDS011;11299;43.202;27.920;2022-09-01T09:18:39;8.95;;;6.07;;
22260;SDS011;11299;43.202;27.920;2022-09-01T09:21:15;8.88;;;5.65;;
22260;SDS011;11299;43.202;27.920;2022-09-01T09:23:45;10.38;;;6.40;;
22260;SDS011;11299;43.202;27.920;2022-09-01T09:26:15;10.25;;;6.20;;
22260;SDS011;11299;43.202;27.920;2022-09-01T09:28:42;9.68;;;6.25;;
22260;SDS011;11299;43.202;27.920;2022-09-01T09:33:53;12.75;;;6.72;;
22260;SDS011;11299;43.202;27.920;2022-09-01T09:36:20;8.60;;;6.20;;
22260;SDS011;11299;43.202;27.920;2022-09-01T09:39:21;8.15;;;5.82;;
22260;SDS011;11299;43.202;27.920;2022-09-01T09:41:43;10.57;;;6.45;;
22260;SDS011;11299;43.202;27.920;2022-09-01T09:44:27;9.73;;;6.32;;
22260;SDS011;11299;43.202;27.920;2022-09-01T09:46:55;10.45;;;6.10;;
22260;SDS011;11299;43.202;27.920;2022-09-01T09:51:57;13.10;;;7.30;;
22260;SDS011;11299;43.202;27.920;2022-09-01T09:57:29;11.48;;;5.90;;
22260;SDS011;11299;43.202;27.920;2022-09-01T09:59:57;10.50;;;6.03;;
22260;SDS011;11299;43.202;27.920;2022-09-01T10:04:52;9.60;;;5.63;;
22260;SDS011;11299;43.202;27.920;2022-09-01T10:09:52;8.32;;;5.97;;
22260;SDS011;11299;43.202;27.920;2022-09-01T10:12:22;13.95;;;6.60;;
22260;SDS011;11299;43.202;27.920;2022-09-01T10:14:53;13.27;;;6.47;;
22260;SDS011;11299;43.202;27.920;2022-09-01T10:17:24;9.27;;;7.10;;
22260;SDS011;11299;43.202;27.920;2022-09-01T10:20:19;11.48;;;7.40;;
22260;SDS011;11299;43.202;27.920;2022-09-01T10:22:46;11.52;;;7.13;;
22260;SDS011;11299;43.202;27.920;2022-09-01T10:25:18;9.07;;;6.82;;
22260;SDS011;11299;43.202;27.920;2022-09-01T10:27:57;9.90;;;6.30;;
22260;SDS011;11299;43.202;27.920;2022-09-01T10:30:30;10.68;;;6.22;;
22260;SDS011;11299;43.202;27.920;2022-09-01T10:32:57;10.77;;;6.90;;
22260;SDS011;11299;43.202;27.920;2022-09-01T10:35:34;8.82;;;7.00;;
22260;SDS011;11299;43.202;27.920;2022-09-01T10:38:05;9.35;;;5.85;;
22260;SDS011;11299;43.202;27.920;2022-09-01T10:40:41;10.18;;;6.32;;
22260;SDS011;11299;43.202;27.920;2022-09-01T10:45:47;12.52;;;6.07;;
22260;SDS011;11299;43.202;27.920;2022-09-01T10:56:00;10.98;;;6.07;;
22260;SDS011;11299;43.202;27.920;2022-09-01T10:58:38;11.68;;;5.90;;
22260;SDS011;11299;43.202;27.920;2022-09-01T11:02:02;10.23;;;6.45;;
22260;SDS011;11299;43.202;27.920;2022-09-01T11:10:09;10.85;;;6.75;;
22260;SDS011;11299;43.202;27.920;2022-09-01T11:13:07;13.07;;;6.40;;
22260;SDS011;11299;43.202;27.920;2022-09-01T11:15:54;9.98;;;6.60;;
22260;SDS011;11299;43.202;27.920;2022-09-01T11:18:26;8.45;;;6.45;;
22260;SDS011;11299;43.202;27.920;2022-09-01T11:20:54;12.68;;;7.03;;
22260;SDS011;11299;43.202;27.920;2022-09-01T11:23:48;9.35;;;6.18;;
22260;SDS011;11299;43.202;27.920;2022-09-01T11:28:57;10.60;;;6.57;;
22260;SDS011;11299;43.202;27.920;2022-09-01T11:31:30;13.45;;;6.63;;
22260;SDS011;11299;43.202;27.920;2022-09-01T11:34:09;12.10;;;6.40;;
22260;SDS011;11299;43.202;27.920;2022-09-01T11:41:54;14.63;;;7.10;;
22260;SDS011;11299;43.202;27.920;2022-09-01T11:44:55;11.18;;;7.05;;
22260;SDS011;11299;43.202;27.920;2022-09-01T11:47:31;13.07;;;6.47;;
22260;SDS011;11299;43.202;27.920;2022-09-01T11:52:39;15.13;;;7.25;;
22260;SDS011;11299;43.202;27.920;2022-09-01T11:55:05;13.15;;;6.97;;
22260;SDS011;11299;43.202;27.920;2022-09-01T11:57:36;15.20;;;6.68;;
22260;SDS011;11299;43.202;27.920;2022-09-01T12:00:05;10.45;;;6.88;;
22260;SDS011;11299;43.202;27.920;2022-09-01T12:02:35;10.70;;;7.03;;
22260;SDS011;11299;43.202;27.920;2022-09-01T12:05:31;12.45;;;6.55;;
22260;SDS011;11299;43.202;27.920;2022-09-01T12:07:59;19.25;;;6.97;;
22260;SDS011;11299;43.202;27.920;2022-09-01T12:13:01;15.25;;;7.38;;
22260;SDS011;11299;43.202;27.920;2022-09-01T12:15:29;18.52;;;8.13;;
22260;SDS011;11299;43.202;27.920;2022-09-01T12:18:15;11.20;;;6.93;;
22260;SDS011;11299;43.202;27.920;2022-09-01T12:20:46;10.85;;;7.18;;
22260;SDS011;11299;43.202;27.920;2022-09-01T12:23:24;12.63;;;7.00;;
22260;SDS011;11299;43.202;27.920;2022-09-01T12:25:59;12.30;;;6.57;;
22260;SDS011;11299;43.202;27.920;2022-09-01T12:28:28;13.13;;;8.18;;
22260;SDS011;11299;43.202;27.920;2022-09-01T12:30:55;14.27;;;7.63;;
22260;SDS011;11299;43.202;27.920;2022-09-01T12:33:23;17.40;;;7.78;;
22260;SDS011;11299;43.202;27.920;2022-09-01T12:35:51;14.57;;;7.60;;
22260;SDS011;11299;43.202;27.920;2022-09-01T12:38:35;15.65;;;8.02;;
22260;SDS011;11299;43.202;27.920;2022-09-01T12:41:00;15.65;;;7.70;;
22260;SDS011;11299;43.202;27.920;2022-09-01T12:43:37;16.85;;;7.05;;
22260;SDS011;11299;43.202;27.920;2022-09-01T12:46:05;10.38;;;6.47;;
22260;SDS011;11299;43.202;27.920;2022-09-01T12:48:35;13.88;;;6.72;;
22260;SDS011;11299;43.202;27.920;2022-09-01T12:51:23;10.50;;;7.15;;
22260;SDS011;11299;43.202;27.920;2022-09-01T12:53:50;10.40;;;6.85;;
22260;SDS011;11299;43.202;27.920;2022-09-01T12:56:19;11.93;;;6.60;;
22260;SDS011;11299;43.202;27.920;2022-09-01T12:58:51;14.93;;;8.35;;
22260;SDS011;11299;43.202;27.920;2022-09-01T13:01:32;12.57;;;7.43;;
22260;SDS011;11299;43.202;27.920;2022-09-01T13:07:03;16.45;;;9.52;;
22260;SDS011;11299;43.202;27.920;2022-09-01T13:12:17;25.38;;;12.07;;
22260;SDS011;11299;43.202;27.920;2022-09-01T13:14:45;15.57;;;8.15;;
22260;SDS011;11299;43.202;27.920;2022-09-01T13:17:10;11.57;;;8.00;;
22260;SDS011;11299;43.202;27.920;2022-09-01T13:19:36;12.38;;;7.65;;
22260;SDS011;11299;43.202;27.920;2022-09-01T13:22:03;12.00;;;7.32;;
22260;SDS011;11299;43.202;27.920;2022-09-01T13:24:30;11.32;;;6.80;;
22260;SDS011;11299;43.202;27.920;2022-09-01T13:26:56;12.20;;;7.10;;
22260;SDS011;11299;43.202;27.920;2022-09-01T13:29:22;17.15;;;6.75;;
22260;SDS011;11299;43.202;27.920;2022-09-01T13:31:48;14.45;;;7.05;;
22260;SDS011;11299;43.202;27.920;2022-09-01T13:34:14;8.90;;;6.90;;
22260;SDS011;11299;43.202;27.920;2022-09-01T13:36:40;11.60;;;6.78;;
22260;SDS011;11299;43.202;27.920;2022-09-01T13:39:05;16.83;;;8.80;;
22260;SDS011;11299;43.202;27.920;2022-09-01T13:41:31;12.65;;;7.07;;
22260;SDS011;11299;43.202;27.920;2022-09-01T13:43:56;11.32;;;7.13;;
22260;SDS011;11299;43.202;27.920;2022-09-01T13:46:22;11.95;;;7.00;;
22260;SDS011;11299;43.202;27.920;2022-09-01T13:48:48;17.20;;;9.00;;
22260;SDS011;11299;43.202;27.920;2022-09-01T13:51:23;13.05;;;10.52;;
22260;SDS011;11299;43.202;27.920;2022-09-01T13:53:50;11.48;;;7.75;;
22260;SDS011;11299;43.202;27.920;2022-09-01T13:56:17;13.57;;;7.13;;
22260;SDS011;11299;43.202;27.920;2022-09-01T13:58:42;12.82;;;7.45;;
22260;SDS011;11299;43.202;27.920;2022-09-01T14:01:08;14.90;;;7.80;;
22260;SDS011;11299;43.202;27.920;2022-09-01T14:03:33;15.88;;;7.15;;
22260;SDS011;11299;43.202;27.920;2022-09-01T14:05:59;15.13;;;7.80;;
22260;SDS011;11299;43.202;27.920;2022-09-01T14:08:24;11.90;;;7.13;;
22260;SDS011;11299;43.202;27.920;2022-09-01T14:10:50;13.27;;;7.22;;
22260;SDS011;11299;43.202;27.920;2022-09-01T14:13:18;11.70;;;6.78;;
22260;SDS011;11299;43.202;27.920;2022-09-01T14:15:45;10.80;;;7.07;;
22260;SDS011;11299;43.202;27.920;2022-09-01T14:18:12;14.10;;;6.93;;
22260;SDS011;11299;43.202;27.920;2022-09-01T14:20:39;17.10;;;7.85;;
22260;SDS011;11299;43.202;27.920;2022-09-01T14:23:09;14.32;;;7.40;;
22260;SDS011;11299;43.202;27.920;2022-09-01T14:25:41;12.82;;;7.32;;
22260;SDS011;11299;43.202;27.920;2022-09-01T14:28:11;11.40;;;6.97;;
22260;SDS011;11299;43.202;27.920;2022-09-01T14:30:38;9.73;;;6.20;;
22260;SDS011;11299;43.202;27.920;2022-09-01T14:33:06;16.65;;;6.63;;
22260;SDS011;11299;43.202;27.920;2022-09-01T14:35:35;13.88;;;5.60;;
22260;SDS011;11299;43.202;27.920;2022-09-01T14:38:02;8.65;;;5.88;;
22260;SDS011;11299;43.202;27.920;2022-09-01T14:40:31;12.85;;;8.27;;
22260;SDS011;11299;43.202;27.920;2022-09-01T14:42:57;10.32;;;6.20;;
22260;SDS011;11299;43.202;27.920;2022-09-01T14:45:25;15.50;;;6.60;;
22260;SDS011;11299;43.202;27.920;2022-09-01T14:47:53;8.43;;;6.20;;
22260;SDS011;11299;43.202;27.920;2022-09-01T14:50:21;15.35;;;7.07;;
22260;SDS011;11299;43.202;27.920;2022-09-01T14:52:48;9.38;;;5.82;;
22260;SDS011;11299;43.202;27.920;2022-09-01T14:55:17;7.45;;;5.75;;
22260;SDS011;11299;43.202;27.920;2022-09-01T14:57:42;8.88;;;6.00;;
22260;SDS011;11299;43.202;27.920;2022-09-01T15:00:09;9.25;;;6.22;;
22260;SDS011;11299;43.202;27.920;2022-09-01T15:02:39;15.75;;;6.75;;
22260;SDS011;11299;43.202;27.920;2022-09-01T15:05:06;12.50;;;6.30;;
22260;SDS011;11299;43.202;27.920;2022-09-01T15:07:32;9.60;;;6.70;;
22260;SDS011;11299;43.202;27.920;2022-09-01T15:09:58;9.10;;;7.07;;
22260;SDS011;11299;43.202;27.920;2022-09-01T15:12:24;11.70;;;6.32;;
22260;SDS011;11299;43.202;27.920;2022-09-01T15:14:50;10.82;;;6.38;;
22260;SDS011;11299;43.202;27.920;2022-09-01T15:17:15;11.48;;;6.78;;
22260;SDS011;11299;43.202;27.920;2022-09-01T15:19:41;11.52;;;6.50;;
22260;SDS011;11299;43.202;27.920;2022-09-01T15:22:07;10.95;;;6.43;;
22260;SDS011;11299;43.202;27.920;2022-09-01T15:24:36;10.38;;;6.78;;
22260;SDS011;11299;43.202;27.920;2022-09-01T15:27:02;11.20;;;5.97;;
22260;SDS011;11299;43.202;27.920;2022-09-01T15:29:28;10.43;;;6.43;;
22260;SDS011;11299;43.202;27.920;2022-09-01T15:31:58;11.30;;;6.28;;
22260;SDS011;11299;43.202;27.920;2022-09-01T15:34:25;11.77;;;6.45;;
22260;SDS011;11299;43.202;27.920;2022-09-01T15:36:51;9.45;;;6.82;;
22260;SDS011;11299;43.202;27.920;2022-09-01T15:39:17;10.40;;;6.60;;
22260;SDS011;11299;43.202;27.920;2022-09-01T15:41:43;12.38;;;6.78;;
22260;SDS011;11299;43.202;27.920;2022-09-01T15:44:09;10.70;;;6.60;;
22260;SDS011;11299;43.202;27.920;2022-09-01T15:46:35;10.05;;;6.50;;